sensor_id;sensor_type;location;lat;lon;timestamp;pressure;altitude;pressure_sealevel;temperature;humidity
29163;BME280;20331;53.144;8.208;2023-11-22T00:03:18;102894.97;;;4.87;100.00
29163;BME280;20331;53.144;8.208;2023-11-22T00:08:40;102907.66;;;4.82;100.00
29163;BME280;20331;53.144;8.208;2023-11-22T00:14:02;102906.75;;;4.80;100.00
29163;BME280;20331;53.144;8.208;2023-11-22T00:19:24;102908.31;;;4.75;100.00
29163;BME280;20331;53.144;8.208;2023-11-22T00:24:46;102909.06;;;4.71;100.00
29163;BME280;20331;53.144;8.208;2023-11-22T00:30:12;102896.13;;;4.67;100.00
29163;BME280;20331;53.144;8.208;2023-11-22T00:35:39;102896.06;;;4.65;100.00
29163;BME280;20331;53.144;8.208;2023-11-22T00:41:01;102907.16;;;4.64;100.00
29163;BME280;20331;53.144;8.208;2023-11-22T00:46:23;102913.94;;;4.62;100.00
29163;BME280;20331;53.144;8.208;2023-11-22T00:51:45;102917.34;;;4.61;100.00
29163;BME280;20331;53.144;8.208;2023-11-22T00:57:06;102928.31;;;4.57;100.00
29163;BME280;20331;53.144;8.208;2023-11-22T01:02:28;102930.72;;;4.51;100.00
29163;BME280;20331;53.144;8.208;2023-11-22T01:07:50;102925.50;;;4.48;100.00
29163;BME280;20331;53.144;8.208;2023-11-22T01:13:12;102922.03;;;4.46;100.00
29163;BME280;20331;53.144;8.208;2023-11-22T01:18:33;102921.91;;;4.43;100.00
29163;BME280;20331;53.144;8.208;2023-11-22T01:23:59;102933.75;;;4.38;100.00
29163;BME280;20331;53.144;8.208;2023-11-22T01:29:21;102937.84;;;4.32;100.00
29163;BME280;20331;53.144;8.208;2023-11-22T01:34:42;102952.25;;;4.28;100.00
29163;BME280;20331;53.144;8.208;2023-11-22T01:40:05;102952.06;;;4.22;100.00
29163;BME280;20331;53.144;8.208;2023-11-22T01:45:27;102976.75;;;4.20;100.00
29163;BME280;20331;53.144;8.208;2023-11-22T01:50:49;102977.47;;;4.16;100.00
29163;BME280;20331;53.144;8.208;2023-11-22T01:56:11;102986.88;;;4.16;100.00
29163;BME280;20331;53.144;8.208;2023-11-22T02:01:33;102986.72;;;4.11;100.00
29163;BME280;20331;53.144;8.208;2023-11-22T02:06:54;102998.47;;;4.04;100.00
29163;BME280;20331;53.144;8.208;2023-11-22T02:12:16;102990.69;;;4.01;100.00
29163;BME280;20331;53.144;8.208;2023-11-22T02:17:38;102971.78;;;3.98;100.00
29163;BME280;20331;53.144;8.208;2023-11-22T02:23:07;102967.38;;;3.94;100.00
29163;BME280;20331;53.144;8.208;2023-11-22T02:28:30;102979.38;;;3.95;100.00
29163;BME280;20331;53.144;8.208;2023-11-22T02:33:51;102981.03;;;3.93;100.00
29163;BME280;20331;53.144;8.208;2023-11-22T02:39:13;102986.09;;;3.91;100.00
29163;BME280;20331;53.144;8.208;2023-11-22T02:44:35;102989.38;;;3.87;100.00
29163;BME280;20331;53.144;8.208;2023-11-22T02:49:57;102983.28;;;3.84;100.00
29163;BME280;20331;53.144;8.208;2023-11-22T02:55:19;102982.38;;;3.82;100.00
29163;BME280;20331;53.144;8.208;2023-11-22T03:00:41;102979.72;;;3.79;100.00
29163;BME280;20331;53.144;8.208;2023-11-22T03:06:03;102977.00;;;3.74;100.00
29163;BME280;20331;53.144;8.208;2023-11-22T03:11:26;102976.91;;;3.71;100.00
29163;BME280;20331;53.144;8.208;2023-11-22T03:16:49;102989.66;;;3.70;100.00
29163;BME280;20331;53.144;8.208;2023-11-22T03:22:10;103008.38;;;3.69;100.00
29163;BME280;20331;53.144;8.208;2023-11-22T03:27:32;103022.03;;;3.68;100.00
29163;BME280;20331;53.144;8.208;2023-11-22T03:32:54;103030.50;;;3.67;100.00
29163;BME280;20331;53.144;8.208;2023-11-22T03:38:17;103028.78;;;3.66;100.00
29163;BME280;20331;53.144;8.208;2023-11-22T03:43:40;103036.41;;;3.64;100.00
29163;BME280;20331;53.144;8.208;2023-11-22T03:49:05;103053.50;;;3.65;100.00
29163;BME280;20331;53.144;8.208;2023-11-22T03:54:30;103049.28;;;3.67;100.00
29163;BME280;20331;53.144;8.208;2023-11-22T03:59:51;103038.13;;;3.65;100.00
29163;BME280;20331;53.144;8.208;2023-11-22T04:05:13;103025.25;;;3.62;100.00
29163;BME280;20331;53.144;8.208;2023-11-22T04:10:35;103021.81;;;3.62;100.00
29163;BME280;20331;53.144;8.208;2023-11-22T04:15:57;103007.19;;;3.59;100.00
29163;BME280;20331;53.144;8.208;2023-11-22T04:21:19;103022.50;;;3.58;100.00
29163;BME280;20331;53.144;8.208;2023-11-22T04:26:40;103034.34;;;3.54;100.00
29163;BME280;20331;53.144;8.208;2023-11-22T04:32:02;103038.53;;;3.52;100.00
29163;BME280;20331;53.144;8.208;2023-11-22T04:37:24;103040.94;;;3.48;100.00
29163;BME280;20331;53.144;8.208;2023-11-22T04:42:48;103057.94;;;3.46;100.00
29163;BME280;20331;53.144;8.208;2023-11-22T04:48:10;103063.75;;;3.42;100.00
29163;BME280;20331;53.144;8.208;2023-11-22T04:53:32;103079.19;;;3.45;100.00
29163;BME280;20331;53.144;8.208;2023-11-22T04:58:54;103095.34;;;3.42;100.00
29163;BME280;20331;53.144;8.208;2023-11-22T05:04:16;103110.69;;;3.42;100.00
29163;BME280;20331;53.144;8.208;2023-11-22T05:09:37;103081.56;;;3.39;100.00
29163;BME280;20331;53.144;8.208;2023-11-22T05:14:59;103072.75;;;3.31;100.00
29163;BME280;20331;53.144;8.208;2023-11-22T05:20:20;103066.69;;;3.29;100.00
29163;BME280;20331;53.144;8.208;2023-11-22T05:25:42;103048.75;;;3.27;100.00
29163;BME280;20331;53.144;8.208;2023-11-22T05:31:04;103045.25;;;3.25;100.00
29163;BME280;20331;53.144;8.208;2023-11-22T05:36:25;103041.81;;;3.25;100.00
29163;BME280;20331;53.144;8.208;2023-11-22T05:41:48;103041.75;;;3.23;100.00
29163;BME280;20331;53.144;8.208;2023-11-22T05:47:10;103058.09;;;3.27;100.00
29163;BME280;20331;53.144;8.208;2023-11-22T05:52:32;103077.03;;;3.32;100.00
29163;BME280;20331;53.144;8.208;2023-11-22T05:57:53;103076.28;;;3.34;100.00
29163;BME280;20331;53.144;8.208;2023-11-22T06:03:15;103078.78;;;3.33;100.00
29163;BME280;20331;53.144;8.208;2023-11-22T06:08:37;103064.22;;;3.32;100.00
29163;BME280;20331;53.144;8.208;2023-11-22T06:13:59;103063.44;;;3.33;100.00
29163;BME280;20331;53.144;8.208;2023-11-22T06:19:20;103068.56;;;3.33;100.00
29163;BME280;20331;53.144;8.208;2023-11-22T06:24:43;103070.41;;;3.37;100.00
29163;BME280;20331;53.144;8.208;2023-11-22T06:30:05;103060.16;;;3.37;100.00
29163;BME280;20331;53.144;8.208;2023-11-22T06:35:27;103066.25;;;3.40;100.00
29163;BME280;20331;53.144;8.208;2023-11-22T06:40:49;103075.63;;;3.40;100.00
29163;BME280;20331;53.144;8.208;2023-11-22T06:46:11;103096.69;;;3.33;100.00
29163;BME280;20331;53.144;8.208;2023-11-22T06:51:32;103114.94;;;3.42;100.00
29163;BME280;20331;53.144;8.208;2023-11-22T06:56:54;103109.06;;;3.44;100.00
29163;BME280;20331;53.144;8.208;2023-11-22T07:02:15;103085.19;;;3.45;100.00
29163;BME280;20331;53.144;8.208;2023-11-22T07:07:38;103100.38;;;3.41;100.00
29163;BME280;20331;53.144;8.208;2023-11-22T07:13:00;103098.66;;;3.40;100.00
29163;BME280;20331;53.144;8.208;2023-11-22T07:18:24;103118.88;;;3.34;100.00
29163;BME280;20331;53.144;8.208;2023-11-22T07:23:46;103122.97;;;3.29;100.00
29163;BME280;20331;53.144;8.208;2023-11-22T07:29:10;103099.41;;;3.37;100.00
29163;BME280;20331;53.144;8.208;2023-11-22T07:34:33;103103.16;;;3.47;100.00
29163;BME280;20331;53.144;8.208;2023-11-22T07:39:55;103098.16;;;3.50;100.00
29163;BME280;20331;53.144;8.208;2023-11-22T07:45:17;103108.41;;;3.50;100.00
29163;BME280;20331;53.144;8.208;2023-11-22T07:50:38;103120.09;;;3.43;100.00
29163;BME280;20331;53.144;8.208;2023-11-22T07:56:02;103123.94;;;3.32;100.00
29163;BME280;20331;53.144;8.208;2023-11-22T08:01:26;103134.41;;;3.38;100.00
29163;BME280;20331;53.144;8.208;2023-11-22T08:06:51;103145.78;;;3.46;100.00
29163;BME280;20331;53.144;8.208;2023-11-22T08:12:13;103128.88;;;3.50;100.00
29163;BME280;20331;53.144;8.208;2023-11-22T08:17:35;103157.22;;;3.56;100.00
29163;BME280;20331;53.144;8.208;2023-11-22T08:22:57;103143.13;;;3.67;100.00
29163;BME280;20331;53.144;8.208;2023-11-22T08:28:20;103143.25;;;3.70;100.00
29163;BME280;20331;53.144;8.208;2023-11-22T08:33:41;103122.97;;;3.76;100.00
29163;BME280;20331;53.144;8.208;2023-11-22T08:39:03;103135.38;;;3.89;100.00
29163;BME280;20331;53.144;8.208;2023-11-22T08:44:26;103113.47;;;3.97;100.00
29163;BME280;20331;53.144;8.208;2023-11-22T08:49:47;103099.13;;;4.02;100.00
29163;BME280;20331;53.144;8.208;2023-11-22T08:55:10;103113.09;;;3.86;100.00
29163;BME280;20331;53.144;8.208;2023-11-22T09:00:31;103118.06;;;3.82;100.00
29163;BME280;20331;53.144;8.208;2023-11-22T09:05:53;103131.53;;;3.76;100.00
29163;BME280;20331;53.144;8.208;2023-11-22T09:11:16;103119.59;;;3.77;100.00
29163;BME280;20331;53.144;8.208;2023-11-22T09:16:41;103138.63;;;3.85;100.00
29163;BME280;20331;53.144;8.208;2023-11-22T09:22:04;103157.63;;;3.90;100.00
29163;BME280;20331;53.144;8.208;2023-11-22T09:27:27;103152.81;;;3.99;100.00
29163;BME280;20331;53.144;8.208;2023-11-22T09:32:49;103152.91;;;4.02;100.00
29163;BME280;20331;53.144;8.208;2023-11-22T09:38:11;103147.13;;;4.07;100.00
29163;BME280;20331;53.144;8.208;2023-11-22T09:43:37;103148.03;;;4.09;100.00
29163;BME280;20331;53.144;8.208;2023-11-22T09:49:05;103156.38;;;4.04;100.00
29163;BME280;20331;53.144;8.208;2023-11-22T09:54:30;103157.31;;;4.06;100.00
29163;BME280;20331;53.144;8.208;2023-11-22T09:59:55;103157.69;;;4.17;99.52
29163;BME280;20331;53.144;8.208;2023-11-22T10:05:19;103136.72;;;4.28;99.73
29163;BME280;20331;53.144;8.208;2023-11-22T10:10:41;103123.75;;;4.24;98.55
29163;BME280;20331;53.144;8.208;2023-11-22T10:16:10;103126.47;;;4.28;99.80
29163;BME280;20331;53.144;8.208;2023-11-22T10:21:33;103138.25;;;4.23;97.03
29163;BME280;20331;53.144;8.208;2023-11-22T10:26:55;103137.56;;;4.29;97.75
29163;BME280;20331;53.144;8.208;2023-11-22T10:32:19;103136.91;;;4.34;97.30
29163;BME280;20331;53.144;8.208;2023-11-22T10:37:42;103126.66;;;4.34;96.29
29163;BME280;20331;53.144;8.208;2023-11-22T10:43:06;103131.31;;;4.46;96.43
29163;BME280;20331;53.144;8.208;2023-11-22T10:48:30;103116.91;;;4.49;96.49
29163;BME280;20331;53.144;8.208;2023-11-22T10:53:53;103108.56;;;4.56;95.92
29163;BME280;20331;53.144;8.208;2023-11-22T10:59:19;103076.28;;;4.61;95.58
29163;BME280;20331;53.144;8.208;2023-11-22T11:04:53;103052.56;;;4.68;95.03
29163;BME280;20331;53.144;8.208;2023-11-22T11:10:20;103028.66;;;4.69;94.00
29163;BME280;20331;53.144;8.208;2023-11-22T11:15:46;102999.72;;;4.73;94.00
29163;BME280;20331;53.144;8.208;2023-11-22T11:21:09;102972.59;;;4.81;93.41
29163;BME280;20331;53.144;8.208;2023-11-22T11:26:34;102953.03;;;4.85;90.14
29163;BME280;20331;53.144;8.208;2023-11-22T11:31:56;102943.81;;;4.91;89.42
29163;BME280;20331;53.144;8.208;2023-11-22T11:37:19;102916.56;;;4.96;89.87
29163;BME280;20331;53.144;8.208;2023-11-22T11:42:43;102908.38;;;5.09;88.97
29163;BME280;20331;53.144;8.208;2023-11-22T11:48:05;102884.59;;;5.17;88.66
29163;BME280;20331;53.144;8.208;2023-11-22T11:53:28;102891.66;;;5.24;84.92
29163;BME280;20331;53.144;8.208;2023-11-22T11:58:56;102896.09;;;5.31;84.16
29163;BME280;20331;53.144;8.208;2023-11-22T12:04:22;102895.47;;;5.41;83.47
29163;BME280;20331;53.144;8.208;2023-11-22T12:09:43;102888.84;;;5.49;81.85
29163;BME280;20331;53.144;8.208;2023-11-22T12:15:06;102886.50;;;5.58;82.08
29163;BME280;20331;53.144;8.208;2023-11-22T12:20:28;102880.50;;;5.59;79.62
29163;BME280;20331;53.144;8.208;2023-11-22T12:25:54;102869.50;;;5.64;78.84
29163;BME280;20331;53.144;8.208;2023-11-22T12:31:17;102877.34;;;5.69;79.93
29163;BME280;20331;53.144;8.208;2023-11-22T12:36:40;102880.66;;;5.65;76.66
29163;BME280;20331;53.144;8.208;2023-11-22T12:42:02;102882.41;;;5.66;73.48
29163;BME280;20331;53.144;8.208;2023-11-22T12:47:35;102895.25;;;5.66;77.75
29163;BME280;20331;53.144;8.208;2023-11-22T12:52:58;102898.63;;;5.65;74.80
29163;BME280;20331;53.144;8.208;2023-11-22T12:58:22;102881.53;;;5.65;77.21
29163;BME280;20331;53.144;8.208;2023-11-22T13:03:44;102871.13;;;5.59;74.54
29163;BME280;20331;53.144;8.208;2023-11-22T13:09:05;102869.47;;;5.63;75.27
29163;BME280;20331;53.144;8.208;2023-11-22T13:14:27;102873.66;;;5.58;76.33
29163;BME280;20331;53.144;8.208;2023-11-22T13:19:54;102877.88;;;5.56;73.53
29163;BME280;20331;53.144;8.208;2023-11-22T13:25:16;102871.84;;;5.54;76.32
29163;BME280;20331;53.144;8.208;2023-11-22T13:30:40;102859.84;;;5.53;74.47
29163;BME280;20331;53.144;8.208;2023-11-22T13:36:02;102839.22;;;5.50;73.76
29163;BME280;20331;53.144;8.208;2023-11-22T13:41:24;102832.28;;;5.46;74.96
29163;BME280;20331;53.144;8.208;2023-11-22T13:46:47;102816.03;;;5.45;73.34
29163;BME280;20331;53.144;8.208;2023-11-22T13:52:10;102802.28;;;5.43;72.70
29163;BME280;20331;53.144;8.208;2023-11-22T13:57:32;102790.28;;;5.42;74.16
29163;BME280;20331;53.144;8.208;2023-11-22T14:02:55;102777.41;;;5.41;74.20
29163;BME280;20331;53.144;8.208;2023-11-22T14:08:18;102778.28;;;5.41;77.27
29163;BME280;20331;53.144;8.208;2023-11-22T14:13:40;102780.06;;;5.44;76.93
29163;BME280;20331;53.144;8.208;2023-11-22T14:19:02;102774.88;;;5.42;76.51
29163;BME280;20331;53.144;8.208;2023-11-22T14:24:24;102751.75;;;5.41;75.42
29163;BME280;20331;53.144;8.208;2023-11-22T14:29:49;102765.34;;;5.37;74.63
29163;BME280;20331;53.144;8.208;2023-11-22T14:35:11;102767.88;;;5.35;76.28
29163;BME280;20331;53.144;8.208;2023-11-22T14:40:34;102766.19;;;5.36;76.32
29163;BME280;20331;53.144;8.208;2023-11-22T14:45:58;102768.69;;;5.33;77.88
29163;BME280;20331;53.144;8.208;2023-11-22T14:51:20;102760.09;;;5.31;77.67
29163;BME280;20331;53.144;8.208;2023-11-22T14:56:42;102749.72;;;5.28;76.07
29163;BME280;20331;53.144;8.208;2023-11-22T15:02:03;102735.13;;;5.24;76.03
29163;BME280;20331;53.144;8.208;2023-11-22T15:07:30;102741.91;;;5.22;75.27
29163;BME280;20331;53.144;8.208;2023-11-22T15:12:52;102739.47;;;5.28;77.77
29163;BME280;20331;53.144;8.208;2023-11-22T15:18:15;102733.66;;;5.35;78.78
29163;BME280;20331;53.144;8.208;2023-11-22T15:23:37;102727.66;;;5.34;76.89
29163;BME280;20331;53.144;8.208;2023-11-22T15:28:59;102719.03;;;5.31;75.82
29163;BME280;20331;53.144;8.208;2023-11-22T15:34:20;102717.22;;;5.27;77.26
29163;BME280;20331;53.144;8.208;2023-11-22T15:39:43;102703.47;;;5.25;77.15
29163;BME280;20331;53.144;8.208;2023-11-22T15:45:05;102696.69;;;5.27;75.60
29163;BME280;20331;53.144;8.208;2023-11-22T15:50:28;102674.41;;;5.26;76.25
29163;BME280;20331;53.144;8.208;2023-11-22T15:55:50;102677.88;;;5.28;77.37
29163;BME280;20331;53.144;8.208;2023-11-22T16:01:12;102677.03;;;5.27;77.16
29163;BME280;20331;53.144;8.208;2023-11-22T16:06:36;102664.16;;;5.26;78.17
29163;BME280;20331;53.144;8.208;2023-11-22T16:12:05;102665.69;;;5.18;79.81
29163;BME280;20331;53.144;8.208;2023-11-22T16:17:27;102652.81;;;5.15;81.32
29163;BME280;20331;53.144;8.208;2023-11-22T16:22:48;102638.94;;;5.06;81.98
29163;BME280;20331;53.144;8.208;2023-11-22T16:28:11;102637.09;;;4.99;82.08
29163;BME280;20331;53.144;8.208;2023-11-22T16:33:32;102611.28;;;4.93;84.55
29163;BME280;20331;53.144;8.208;2023-11-22T16:38:55;102582.22;;;4.93;86.09
29163;BME280;20331;53.144;8.208;2023-11-22T16:44:16;102574.44;;;4.88;86.29
29163;BME280;20331;53.144;8.208;2023-11-22T16:49:45;102598.25;;;4.83;86.95
29163;BME280;20331;53.144;8.208;2023-11-22T16:55:07;102578.53;;;4.80;86.96
29163;BME280;20331;53.144;8.208;2023-11-22T17:00:31;102569.03;;;4.76;88.13
29163;BME280;20331;53.144;8.208;2023-11-22T17:05:52;102570.06;;;4.84;87.83
29163;BME280;20331;53.144;8.208;2023-11-22T17:11:15;102591.50;;;4.86;87.42
29163;BME280;20331;53.144;8.208;2023-11-22T17:16:36;102600.09;;;4.88;87.11
29163;BME280;20331;53.144;8.208;2023-11-22T17:21:58;102585.50;;;4.87;87.76
29163;BME280;20331;53.144;8.208;2023-11-22T17:27:20;102567.50;;;4.84;87.61
29163;BME280;20331;53.144;8.208;2023-11-22T17:32:41;102549.59;;;4.86;90.11
29163;BME280;20331;53.144;8.208;2023-11-22T17:38:03;102524.75;;;4.83;88.92
29163;BME280;20331;53.144;8.208;2023-11-22T17:43:25;102506.72;;;4.80;88.95
29163;BME280;20331;53.144;8.208;2023-11-22T17:48:47;102500.78;;;4.81;88.39
29163;BME280;20331;53.144;8.208;2023-11-22T17:54:09;102484.50;;;4.79;88.09
29163;BME280;20331;53.144;8.208;2023-11-22T17:59:30;102481.13;;;4.82;88.46
29163;BME280;20331;53.144;8.208;2023-11-22T18:04:52;102477.75;;;4.84;88.10
29163;BME280;20331;53.144;8.208;2023-11-22T18:10:13;102461.63;;;4.90;86.89
29163;BME280;20331;53.144;8.208;2023-11-22T18:15:35;102459.94;;;4.90;87.58
29163;BME280;20331;53.144;8.208;2023-11-22T18:20:59;102448.94;;;4.96;86.42
29163;BME280;20331;53.144;8.208;2023-11-22T18:26:21;102422.53;;;5.01;86.34
29163;BME280;20331;53.144;8.208;2023-11-22T18:31:42;102435.44;;;5.07;86.67
29163;BME280;20331;53.144;8.208;2023-11-22T18:37:04;102419.34;;;5.15;85.12
29163;BME280;20331;53.144;8.208;2023-11-22T18:42:27;102405.72;;;5.19;85.60
29163;BME280;20331;53.144;8.208;2023-11-22T18:47:50;102399.00;;;5.24;86.96
29163;BME280;20331;53.144;8.208;2023-11-22T18:53:13;102391.38;;;5.31;85.45
29163;BME280;20331;53.144;8.208;2023-11-22T18:58:35;102368.38;;;5.36;84.10
29163;BME280;20331;53.144;8.208;2023-11-22T19:03:56;102355.56;;;5.37;84.49
29163;BME280;20331;53.144;8.208;2023-11-22T19:09:18;102348.00;;;5.45;85.23
29163;BME280;20331;53.144;8.208;2023-11-22T19:14:41;102325.75;;;5.44;85.59
29163;BME280;20331;53.144;8.208;2023-11-22T19:20:03;102306.13;;;5.47;85.62
29163;BME280;20331;53.144;8.208;2023-11-22T19:25:26;102301.94;;;5.54;85.82
29163;BME280;20331;53.144;8.208;2023-11-22T19:30:48;102314.88;;;5.63;84.88
29163;BME280;20331;53.144;8.208;2023-11-22T19:36:19;102298.69;;;5.65;85.32
29163;BME280;20331;53.144;8.208;2023-11-22T19:41:41;102303.91;;;5.73;84.99
29163;BME280;20331;53.144;8.208;2023-11-22T19:47:03;102291.97;;;5.75;86.08
29163;BME280;20331;53.144;8.208;2023-11-22T19:52:25;102298.00;;;5.80;85.56
29163;BME280;20331;53.144;8.208;2023-11-22T19:57:47;102293.81;;;5.85;85.87
29163;BME280;20331;53.144;8.208;2023-11-22T20:03:09;102289.66;;;5.91;86.34
29163;BME280;20331;53.144;8.208;2023-11-22T20:08:31;102276.75;;;5.90;86.66
29163;BME280;20331;53.144;8.208;2023-11-22T20:13:53;102261.44;;;5.99;87.75
29163;BME280;20331;53.144;8.208;2023-11-22T20:19:15;102248.66;;;6.00;88.13
29163;BME280;20331;53.144;8.208;2023-11-22T20:24:37;102243.56;;;6.05;87.76
29163;BME280;20331;53.144;8.208;2023-11-22T20:30:00;102227.31;;;6.06;88.50
29163;BME280;20331;53.144;8.208;2023-11-22T20:35:23;102232.50;;;6.12;88.08
29163;BME280;20331;53.144;8.208;2023-11-22T20:40:45;102213.78;;;6.22;89.02
29163;BME280;20331;53.144;8.208;2023-11-22T20:46:07;102200.94;;;6.28;88.66
29163;BME280;20331;53.144;8.208;2023-11-22T20:51:28;102213.88;;;6.34;89.05
29163;BME280;20331;53.144;8.208;2023-11-22T20:56:50;102214.81;;;6.41;89.57
29163;BME280;20331;53.144;8.208;2023-11-22T21:02:12;102208.00;;;6.47;89.42
29163;BME280;20331;53.144;8.208;2023-11-22T21:07:34;102183.16;;;6.46;89.96
29163;BME280;20331;53.144;8.208;2023-11-22T21:12:55;102186.63;;;6.54;91.77
29163;BME280;20331;53.144;8.208;2023-11-22T21:18:17;102169.53;;;6.59;91.65
29163;BME280;20331;53.144;8.208;2023-11-22T21:23:39;102164.47;;;6.68;91.43
29163;BME280;20331;53.144;8.208;2023-11-22T21:29:01;102163.63;;;6.71;94.03
29163;BME280;20331;53.144;8.208;2023-11-22T21:34:23;102133.69;;;6.80;95.58
29163;BME280;20331;53.144;8.208;2023-11-22T21:39:44;102131.13;;;6.79;96.81
29163;BME280;20331;53.144;8.208;2023-11-22T21:45:06;102113.94;;;6.76;97.85
29163;BME280;20331;53.144;8.208;2023-11-22T21:50:29;102098.47;;;6.70;100.00
29163;BME280;20331;53.144;8.208;2023-11-22T21:55:51;102092.44;;;6.65;100.00
29163;BME280;20331;53.144;8.208;2023-11-22T22:01:13;102086.38;;;6.56;100.00
29163;BME280;20331;53.144;8.208;2023-11-22T22:06:34;102090.66;;;6.55;100.00
29163;BME280;20331;53.144;8.208;2023-11-22T22:11:57;102094.13;;;6.57;100.00
29163;BME280;20331;53.144;8.208;2023-11-22T22:17:19;102064.09;;;6.53;100.00
29163;BME280;20331;53.144;8.208;2023-11-22T22:22:41;102064.91;;;6.52;100.00
29163;BME280;20331;53.144;8.208;2023-11-22T22:28:02;102059.78;;;6.54;100.00
29163;BME280;20331;53.144;8.208;2023-11-22T22:33:24;102066.66;;;6.55;100.00
29163;BME280;20331;53.144;8.208;2023-11-22T22:38:46;102053.00;;;6.63;100.00
29163;BME280;20331;53.144;8.208;2023-11-22T22:44:08;102053.91;;;6.70;100.00
29163;BME280;20331;53.144;8.208;2023-11-22T22:49:29;102041.03;;;6.74;100.00
29163;BME280;20331;53.144;8.208;2023-11-22T22:54:51;102046.22;;;6.83;100.00
29163;BME280;20331;53.144;8.208;2023-11-22T23:00:14;102060.84;;;6.87;100.00
29163;BME280;20331;53.144;8.208;2023-11-22T23:05:58;102018.00;;;6.94;100.00
29163;BME280;20331;53.144;8.208;2023-11-22T23:11:20;102021.44;;;6.99;100.00
29163;BME280;20331;53.144;8.208;2023-11-22T23:16:41;102009.44;;;7.07;100.00
29163;BME280;20331;53.144;8.208;2023-11-22T23:22:05;102013.78;;;7.16;100.00
29163;BME280;20331;53.144;8.208;2023-11-22T23:27:28;101990.63;;;7.17;100.00
29163;BME280;20331;53.144;8.208;2023-11-22T23:32:49;101994.94;;;7.20;100.00
29163;BME280;20331;53.144;8.208;2023-11-22T23:38:11;101992.34;;;7.21;100.00
29163;BME280;20331;53.144;8.208;2023-11-22T23:43:33;101991.50;;;7.27;100.00
29163;BME280;20331;53.144;8.208;2023-11-22T23:48:57;101970.91;;;7.33;100.00
29163;BME280;20331;53.144;8.208;2023-11-22T23:54:20;101981.22;;;7.34;100.00
29163;BME280;20331;53.144;8.208;2023-11-22T23:59:41;101974.38;;;7.41;100.00
